createdAt,value
2017-07-24T00:02:22.574Z,65.90
2017-07-24T00:04:49.573Z,66.00
2017-07-24T00:07:16.526Z,66.10
2017-07-24T00:09:43.437Z,66.10
2017-07-24T00:12:10.414Z,66.00
2017-07-24T00:14:37.373Z,65.60
2017-07-24T00:17:04.723Z,65.70
2017-07-24T00:19:31.625Z,65.70
2017-07-24T00:21:58.551Z,65.80
2017-07-24T00:24:25.456Z,65.90
2017-07-24T00:26:52.402Z,66.20
2017-07-24T00:29:19.349Z,65.90
2017-07-24T00:31:46.294Z,66.20
2017-07-24T00:34:13.178Z,66.40
2017-07-24T00:36:40.185Z,66.50
2017-07-24T00:39:07.064Z,66.50
2017-07-24T00:41:34.081Z,66.60
2017-07-24T00:44:00.964Z,66.90
2017-07-24T00:46:27.846Z,67.30
2017-07-24T00:48:54.817Z,67.40
2017-07-24T00:51:21.705Z,67.70
2017-07-24T00:53:48.585Z,67.70
2017-07-24T00:56:15.557Z,68.00
2017-07-24T00:58:42.497Z,68.00
2017-07-24T01:01:09.442Z,67.90
2017-07-24T01:03:36.393Z,67.10
2017-07-24T01:06:03.338Z,67.10
2017-07-24T01:08:30.290Z,67.50
2017-07-24T01:10:57.233Z,67.40
2017-07-24T01:13:24.177Z,67.50
2017-07-24T01:15:51.185Z,67.00
2017-07-24T01:18:18.065Z,66.70
2017-07-24T01:20:45.017Z,66.90
2017-07-24T01:23:12.009Z,67.50
2017-07-24T01:25:38.910Z,68.00
2017-07-24T01:28:05.857Z,68.20
2017-07-24T01:30:32.801Z,68.50
2017-07-24T01:32:59.750Z,68.40
2017-07-24T01:35:26.670Z,68.20
2017-07-24T01:37:53.561Z,68.50
2017-07-24T01:40:20.875Z,68.20
2017-07-24T01:42:47.757Z,68.20
2017-07-24T01:45:15.034Z,68.40
2017-07-24T01:47:41.953Z,68.40
2017-07-24T01:50:09.238Z,68.20
2017-07-24T01:52:36.145Z,68.20
2017-07-24T01:55:03.085Z,68.20
2017-07-24T01:57:30.029Z,68.00
2017-07-24T01:59:56.908Z,68.00
2017-07-24T02:02:23.822Z,67.70
2017-07-24T02:04:50.772Z,68.20
2017-07-24T02:07:17.713Z,68.10
2017-07-24T02:09:44.617Z,68.40
2017-07-24T02:12:11.497Z,68.40
2017-07-24T02:14:38.404Z,68.80
2017-07-24T02:17:05.286Z,69.40
2017-07-24T02:19:32.245Z,70.40
2017-07-24T02:21:59.525Z,71.40
2017-07-24T02:24:26.438Z,71.40
2017-07-24T02:26:53.389Z,71.40
2017-07-24T02:29:20.333Z,71.60
2017-07-24T02:31:47.293Z,71.70
2017-07-24T02:34:14.641Z,72.20
2017-07-24T02:36:41.582Z,72.10
2017-07-24T02:39:08.531Z,72.40
2017-07-24T02:41:35.449Z,73.00
2017-07-24T02:44:02.428Z,72.80
2017-07-24T02:46:29.777Z,73.50
2017-07-24T02:48:56.693Z,73.50
2017-07-24T02:51:23.674Z,74.20
2017-07-24T02:53:50.558Z,74.00
2017-07-24T02:56:17.483Z,74.90
2017-07-24T02:58:44.813Z,75.50
2017-07-24T03:01:11.723Z,75.50
2017-07-24T03:03:38.713Z,76.00
2017-07-24T03:06:05.658Z,75.90
2017-07-24T03:08:32.602Z,75.40
2017-07-24T03:10:59.485Z,76.20
2017-07-24T03:13:26.397Z,76.70
2017-07-24T03:15:53.713Z,77.80
2017-07-24T03:18:20.702Z,77.70
2017-07-24T03:20:47.582Z,78.00
2017-07-24T03:23:14.489Z,78.20
2017-07-24T03:25:41.442Z,78.60
2017-07-24T03:28:08.725Z,79.40
2017-07-24T03:30:35.643Z,79.40
2017-07-24T03:33:02.989Z,79.40
2017-07-24T03:35:29.905Z,79.40
2017-07-24T03:37:56.890Z,79.20
2017-07-24T03:40:24.182Z,79.40
2017-07-24T03:42:51.087Z,79.40
2017-07-24T03:45:18.026Z,79.80
2017-07-24T03:47:44.984Z,79.20
2017-07-24T03:50:12.343Z,80.90
2017-07-24T03:52:39.697Z,81.70
2017-07-24T03:55:07.009Z,82.40
2017-07-24T03:57:34.006Z,82.40
2017-07-24T04:00:01.319Z,83.00
2017-07-24T04:02:28.205Z,83.00
2017-07-24T04:04:55.545Z,83.60
2017-07-24T04:07:22.493Z,83.50
2017-07-24T04:09:49.441Z,82.30
2017-07-24T04:12:16.389Z,82.00
2017-07-24T04:14:43.669Z,83.40
2017-07-24T04:17:10.696Z,83.40
2017-07-24T04:19:38.041Z,82.20
2017-07-24T04:22:04.941Z,82.10
2017-07-24T04:24:31.853Z,82.50
2017-07-24T04:26:59.198Z,83.70
2017-07-24T04:29:26.508Z,84.20
2017-07-24T04:31:54.306Z,84.20
2017-07-24T04:34:21.262Z,83.70
2017-07-24T04:36:48.617Z,85.00
2017-07-24T04:39:15.973Z,85.80
2017-07-24T04:41:43.284Z,85.70
2017-07-24T04:44:10.187Z,85.70
2017-07-24T04:46:37.498Z,86.10
2017-07-24T04:49:04.474Z,86.10
2017-07-24T04:51:31.396Z,86.00
2017-07-24T04:53:58.368Z,86.30
2017-07-24T04:56:25.411Z,86.30
2017-07-24T04:58:52.377Z,86.10
2017-07-24T05:01:19.727Z,87.10
2017-07-24T05:03:47.006Z,87.10
2017-07-24T05:06:14.021Z,87.10
2017-07-24T05:08:40.972Z,87.30
2017-07-24T05:11:08.269Z,86.60
2017-07-24T05:13:35.178Z,86.50
2017-07-24T05:16:02.525Z,85.70
2017-07-24T05:18:29.469Z,85.70
2017-07-24T05:20:56.828Z,87.00
2017-07-24T05:23:24.109Z,87.10
2017-07-24T05:25:50.989Z,87.10
2017-07-24T05:28:17.914Z,86.70
2017-07-24T05:30:44.809Z,86.20
2017-07-24T05:33:11.701Z,86.50
2017-07-24T05:35:38.601Z,86.70
2017-07-24T05:38:05.544Z,86.50
2017-07-24T05:40:32.492Z,86.10
2017-07-24T05:42:59.373Z,86.60
2017-07-24T05:45:26.381Z,86.80
2017-07-24T05:47:53.329Z,86.50
2017-07-24T05:50:20.209Z,86.90
2017-07-24T05:52:47.230Z,87.10
2017-07-24T05:55:14.193Z,86.90
2017-07-24T05:57:41.531Z,87.60
2017-07-24T06:00:08.413Z,87.50
2017-07-24T06:02:35.342Z,87.90
2017-07-24T06:05:02.653Z,87.40
2017-07-24T06:07:29.538Z,87.40
2017-07-24T06:09:56.817Z,87.30
2017-07-24T06:12:23.726Z,87.30
2017-07-24T06:14:50.613Z,86.90
2017-07-24T06:17:17.614Z,87.10
2017-07-24T06:19:44.504Z,87.60
2017-07-24T06:22:11.381Z,88.20
2017-07-24T06:24:38.353Z,88.20
2017-07-24T06:27:05.270Z,88.40
2017-07-24T06:29:32.241Z,88.00
2017-07-24T06:31:59.189Z,88.40
2017-07-24T06:34:26.106Z,88.40
2017-07-24T06:36:53.080Z,89.10
2017-07-24T06:39:20.002Z,88.40
2017-07-24T06:41:46.969Z,88.20
2017-07-24T06:44:13.918Z,88.30
2017-07-24T06:46:40.829Z,87.90
2017-07-24T06:49:07.745Z,88.90
2017-07-24T06:51:34.766Z,89.00
2017-07-24T06:54:02.118Z,88.70
2017-07-24T06:56:29.065Z,88.70
2017-07-24T06:58:56.009Z,88.30
2017-07-24T07:01:22.952Z,88.30
2017-07-24T07:03:49.879Z,88.60
2017-07-24T07:06:16.764Z,89.10
2017-07-24T07:08:43.788Z,88.60
2017-07-24T07:11:10.674Z,87.70
2017-07-24T07:13:37.597Z,87.70
2017-07-24T07:16:04.946Z,87.70
2017-07-24T07:18:32.309Z,87.30
2017-07-24T07:20:59.649Z,88.40
2017-07-24T07:23:26.568Z,88.40
2017-07-24T07:25:53.549Z,88.50
2017-07-24T07:28:20.898Z,88.60
2017-07-24T07:30:47.845Z,88.60
2017-07-24T07:33:14.725Z,88.20
2017-07-24T07:35:41.748Z,88.80
2017-07-24T07:38:09.098Z,88.00
2017-07-24T07:40:36.041Z,88.00
2017-07-24T07:43:02.955Z,87.20
2017-07-24T07:45:29.843Z,88.40
2017-07-24T07:47:57.150Z,87.60
2017-07-24T07:50:24.137Z,87.60
2017-07-24T07:52:51.081Z,87.50
2017-07-24T07:55:17.996Z,88.00
2017-07-24T07:57:44.981Z,87.70
2017-07-24T08:00:12.307Z,88.10
2017-07-24T08:02:39.273Z,88.10
2017-07-24T08:05:06.204Z,86.90
2017-07-24T08:07:33.164Z,86.90
2017-07-24T08:10:00.117Z,86.00
2017-07-24T08:12:27.000Z,87.20
2017-07-24T08:14:53.886Z,86.50
2017-07-24T08:17:20.858Z,87.10
2017-07-24T08:19:48.138Z,85.50
2017-07-24T08:22:15.057Z,85.50
2017-07-24T08:24:42.378Z,85.70
2017-07-24T08:27:09.265Z,85.70
2017-07-24T08:29:36.144Z,86.40
2017-07-24T08:32:03.953Z,85.70
2017-07-24T08:34:31.289Z,86.10
2017-07-24T08:36:58.330Z,86.10
2017-07-24T08:39:25.278Z,87.10
2017-07-24T08:41:52.157Z,87.70
2017-07-24T08:44:19.074Z,86.40
2017-07-24T08:46:46.425Z,86.10
2017-07-24T08:49:13.378Z,86.10
2017-07-24T08:51:40.317Z,86.30
2017-07-24T08:54:07.630Z,85.10
2017-07-24T08:56:34.517Z,85.10
2017-07-24T08:59:01.873Z,85.40
2017-07-24T09:01:29.327Z,85.00
2017-07-24T09:03:56.229Z,85.00
2017-07-24T09:06:23.118Z,84.10
2017-07-24T09:08:50.062Z,83.20
2017-07-24T09:11:16.954Z,83.60
2017-07-24T09:13:43.878Z,83.80
2017-07-24T09:16:11.150Z,83.10
2017-07-24T09:18:38.080Z,83.10
2017-07-24T09:21:05.349Z,84.40
2017-07-24T09:23:32.303Z,84.40
2017-07-24T09:25:59.249Z,81.90
2017-07-24T09:28:26.153Z,82.90
2017-07-24T09:30:53.097Z,81.40
2017-07-24T09:33:20.013Z,81.60
2017-07-24T09:35:46.902Z,82.00
2017-07-24T09:38:14.290Z,80.60
2017-07-24T09:40:41.296Z,80.60
2017-07-24T09:43:08.589Z,78.80
2017-07-24T09:45:35.588Z,79.00
2017-07-24T09:48:02.539Z,79.70
2017-07-24T09:50:29.423Z,78.70
2017-07-24T09:52:56.373Z,79.60
2017-07-24T09:55:23.374Z,78.40
2017-07-24T09:57:50.368Z,79.00
2017-07-24T10:00:17.278Z,77.10
2017-07-24T10:02:44.624Z,76.40
2017-07-24T10:05:11.573Z,76.40
2017-07-24T10:07:38.498Z,76.80
2017-07-24T10:10:05.401Z,76.50
2017-07-24T10:12:32.304Z,76.80
2017-07-24T10:14:59.237Z,75.20
2017-07-24T10:17:26.123Z,77.50
2017-07-24T10:19:53.192Z,76.20
2017-07-24T10:22:20.109Z,76.90
2017-07-24T10:24:47.453Z,76.40
2017-07-24T10:27:14.801Z,75.60
2017-07-24T10:29:41.750Z,75.60
2017-07-24T10:32:08.710Z,76.40
2017-07-24T10:34:36.053Z,74.60
2017-07-24T10:37:02.966Z,74.50
2017-07-24T10:39:29.854Z,73.90
2017-07-24T10:41:57.246Z,72.80
2017-07-24T10:44:24.132Z,72.80
2017-07-24T10:46:51.058Z,73.60
2017-07-24T10:49:18.085Z,73.40
2017-07-24T10:51:44.998Z,74.00
2017-07-24T10:54:12.302Z,74.40
2017-07-24T10:56:39.227Z,74.40
2017-07-24T10:59:06.131Z,74.60
2017-07-24T11:01:33.079Z,72.50
2017-07-24T11:04:00.001Z,72.50
2017-07-24T11:06:26.970Z,72.30
2017-07-24T11:08:53.924Z,71.80
2017-07-24T11:11:21.234Z,70.10
2017-07-24T11:13:48.158Z,70.10
2017-07-24T11:16:15.069Z,70.60
2017-07-24T11:18:42.418Z,69.60
2017-07-24T11:21:09.325Z,69.60
2017-07-24T11:23:36.313Z,69.00
2017-07-24T11:26:03.237Z,69.80
2017-07-24T11:28:30.209Z,70.00
2017-07-24T11:30:57.154Z,68.00
2017-07-24T11:33:24.070Z,67.90
2017-07-24T11:35:51.041Z,68.40
2017-07-24T11:38:17.969Z,67.80
2017-07-24T11:40:44.937Z,67.00
2017-07-24T11:43:11.830Z,67.50
2017-07-24T11:45:38.781Z,66.60
2017-07-24T11:48:05.669Z,67.10
2017-07-24T11:50:32.620Z,67.80
2017-07-24T11:52:59.566Z,67.40
2017-07-24T11:55:26.513Z,67.80
2017-07-24T11:57:53.433Z,67.50
2017-07-24T12:00:20.310Z,68.70
2017-07-24T12:02:47.668Z,69.20
2017-07-24T12:05:15.012Z,69.70
2017-07-24T12:07:41.894Z,69.80
2017-07-24T12:10:08.911Z,70.90
2017-07-24T12:12:35.789Z,70.70
2017-07-24T12:15:02.670Z,70.60
2017-07-24T12:17:29.605Z,70.60
2017-07-24T12:19:56.595Z,71.00
2017-07-24T12:22:23.478Z,68.10
2017-07-24T12:24:50.398Z,66.50
2017-07-24T12:27:17.687Z,67.20
2017-07-24T12:29:44.624Z,67.20
2017-07-24T12:32:11.502Z,68.20
2017-07-24T12:34:38.519Z,67.90
2017-07-24T12:37:05.723Z,67.10
2017-07-24T12:39:32.615Z,68.90
2017-07-24T12:41:59.529Z,69.70
2017-07-24T12:44:26.873Z,70.60
2017-07-24T12:46:53.802Z,70.60
2017-07-24T12:49:20.683Z,71.30
2017-07-24T12:51:47.634Z,72.10
2017-07-24T12:54:14.956Z,72.80
2017-07-24T12:56:41.917Z,72.80
2017-07-24T12:59:08.838Z,74.00
2017-07-24T13:01:35.807Z,73.70
2017-07-24T13:04:02.690Z,74.50
2017-07-24T13:06:29.717Z,74.40
2017-07-24T13:08:57.069Z,74.70
2017-07-24T13:11:24.081Z,74.70
2017-07-24T13:13:51.154Z,73.50
2017-07-24T13:16:18.098Z,73.00
2017-07-24T13:18:44.980Z,72.70
2017-07-24T13:21:11.886Z,72.70
2017-07-24T13:23:38.777Z,71.70
2017-07-24T13:26:05.790Z,70.70
2017-07-24T13:28:32.669Z,69.90
2017-07-24T13:30:59.580Z,70.40
2017-07-24T13:33:26.922Z,70.10
2017-07-24T13:35:53.805Z,70.10
2017-07-24T13:38:20.925Z,69.20
2017-07-24T13:40:47.972Z,69.10
2017-07-24T13:43:15.254Z,69.80
2017-07-24T13:45:42.270Z,69.70
2017-07-24T13:48:09.218Z,68.80
2017-07-24T13:50:36.212Z,66.10
2017-07-24T13:53:03.113Z,66.20
2017-07-24T13:55:30.066Z,67.50
2017-07-24T13:57:57.006Z,68.60
2017-07-24T14:00:23.966Z,69.30
2017-07-24T14:02:51.351Z,68.60
2017-07-24T14:05:18.237Z,68.60
2017-07-24T14:07:45.197Z,67.30
2017-07-24T14:10:12.109Z,64.60
2017-07-24T14:12:38.997Z,63.30
2017-07-24T14:15:06.345Z,66.50
2017-07-24T14:17:33.347Z,66.50
2017-07-24T14:20:00.550Z,66.50
2017-07-24T14:22:27.458Z,66.80
2017-07-24T14:24:54.448Z,66.60
2017-07-24T14:29:43.725Z,66.60
2017-07-24T14:32:10.717Z,66.70
2017-07-24T14:34:37.593Z,66.90
2017-07-24T14:37:04.566Z,66.50
2017-07-24T14:39:31.470Z,67.00
2017-07-24T14:41:58.377Z,66.90
2017-07-24T14:44:25.740Z,66.50
2017-07-24T14:46:52.664Z,66.50
2017-07-24T14:49:19.540Z,65.80
2017-07-24T14:51:46.547Z,66.90
2017-07-24T14:54:13.474Z,70.10
2017-07-24T14:56:40.443Z,70.80
2017-07-24T14:59:07.322Z,70.50
2017-07-24T15:01:34.280Z,70.40
2017-07-24T15:04:01.158Z,71.70
2017-07-24T15:06:28.128Z,71.50
2017-07-24T15:08:55.077Z,72.30
2017-07-24T15:11:21.959Z,74.30
2017-07-24T15:13:48.970Z,74.70
2017-07-24T15:16:16.425Z,75.40
2017-07-24T15:18:43.367Z,75.40
2017-07-24T15:21:10.261Z,75.90
2017-07-24T15:23:37.170Z,76.20
2017-07-24T15:26:04.513Z,76.60
2017-07-24T15:28:31.433Z,76.60
2017-07-24T15:30:58.321Z,76.70
2017-07-24T15:33:25.206Z,76.70
2017-07-24T15:35:52.206Z,78.10
2017-07-24T15:38:19.477Z,77.70
2017-07-24T15:40:46.810Z,78.20
2017-07-24T15:43:13.749Z,78.20
2017-07-24T15:45:40.713Z,78.10
2017-07-24T15:48:08.070Z,78.70
2017-07-24T15:50:35.397Z,79.40
2017-07-24T15:53:02.361Z,79.40
2017-07-24T15:55:29.305Z,76.70
2017-07-24T15:57:56.261Z,76.90
2017-07-24T16:00:23.538Z,78.90
2017-07-24T16:02:50.554Z,78.90
2017-07-24T16:05:17.503Z,80.30
2017-07-24T16:07:44.446Z,79.30
2017-07-24T16:10:11.394Z,81.50
2017-07-24T16:12:38.746Z,80.70
2017-07-24T16:15:05.668Z,80.70
2017-07-24T16:17:32.858Z,80.40
2017-07-24T16:20:00.205Z,76.50
2017-07-24T16:22:27.150Z,76.50
2017-07-24T16:24:54.093Z,77.60
2017-07-24T16:27:21.042Z,77.10
2017-07-24T16:29:48.034Z,76.70
2017-07-24T16:32:15.002Z,75.50
2017-07-24T16:34:41.955Z,75.10
2017-07-24T16:37:09.409Z,73.60
2017-07-24T16:39:36.286Z,71.60
2017-07-24T16:42:03.218Z,70.10
2017-07-24T16:44:30.090Z,69.50
2017-07-24T16:46:57.437Z,70.80
2017-07-24T16:49:24.424Z,70.80
2017-07-24T16:51:51.301Z,71.70
2017-07-24T16:54:18.214Z,72.70
2017-07-24T16:56:45.133Z,73.10
2017-07-24T16:59:12.625Z,75.50
2017-07-24T17:01:39.518Z,75.50
2017-07-24T17:04:06.466Z,77.10
2017-07-24T17:06:33.345Z,77.10
2017-07-24T17:09:00.609Z,78.30
2017-07-24T17:11:27.490Z,79.50
2017-07-24T17:13:54.725Z,79.50
2017-07-24T17:16:21.685Z,81.00
2017-07-24T17:18:48.657Z,81.00
2017-07-24T17:21:15.610Z,76.60
2017-07-24T17:23:42.552Z,74.60
2017-07-24T17:26:09.591Z,73.50
2017-07-24T17:28:36.567Z,74.00
2017-07-24T17:31:03.639Z,74.50
2017-07-24T17:33:30.637Z,76.00
2017-07-24T17:35:57.592Z,76.50
2017-07-24T17:38:24.522Z,77.10
2017-07-24T17:40:51.482Z,76.90
2017-07-24T17:43:18.437Z,77.60
2017-07-24T17:45:45.785Z,76.60
2017-07-24T17:48:12.674Z,76.60
2017-07-24T17:50:39.637Z,76.30
2017-07-24T17:53:06.629Z,76.90
2017-07-24T17:55:33.937Z,78.30
2017-07-24T17:58:00.818Z,78.30
2017-07-24T18:00:27.769Z,77.90
2017-07-24T18:02:54.841Z,77.30
2017-07-24T18:05:22.142Z,77.60
2017-07-24T18:07:49.435Z,77.60
2017-07-24T18:10:16.421Z,77.90
2017-07-24T18:12:43.297Z,78.20
2017-07-24T18:15:10.265Z,78.00
2017-07-24T18:17:37.182Z,77.50
2017-07-24T18:20:04.400Z,75.60
2017-07-24T18:22:31.277Z,76.40
2017-07-24T18:24:58.168Z,76.00
2017-07-24T18:27:25.617Z,78.00
2017-07-24T18:29:52.845Z,78.00
2017-07-24T18:32:19.813Z,78.70
2017-07-24T18:34:46.699Z,79.10
2017-07-24T18:37:13.614Z,78.80
2017-07-24T18:39:40.961Z,78.60
2017-07-24T18:42:07.871Z,78.60
2017-07-24T18:44:34.768Z,77.50
2017-07-24T18:47:02.321Z,78.80
2017-07-24T18:49:29.665Z,78.40
2017-07-24T18:51:56.622Z,78.40
2017-07-24T18:54:23.969Z,78.70
2017-07-24T18:56:50.873Z,78.70
2017-07-24T18:59:17.782Z,79.70
2017-07-24T19:01:45.054Z,80.70
2017-07-24T19:04:11.974Z,80.70
2017-07-24T19:06:39.265Z,80.40
2017-07-24T19:09:06.165Z,80.40
2017-07-24T19:11:33.093Z,81.00
2017-07-24T19:13:59.997Z,81.00
2017-07-24T19:16:26.997Z,81.30
2017-07-24T19:18:53.882Z,81.20
2017-07-24T19:21:20.842Z,80.90
2017-07-24T19:23:47.954Z,80.80
2017-07-24T19:26:15.244Z,79.20
2017-07-24T19:28:42.293Z,79.20
2017-07-24T19:31:09.218Z,79.40
2017-07-24T19:33:36.106Z,79.10
2017-07-24T19:36:02.988Z,79.40
2017-07-24T19:38:30.333Z,79.40
2017-07-24T19:40:57.280Z,79.40
2017-07-24T19:43:24.242Z,79.10
2017-07-24T19:45:51.559Z,78.20
2017-07-24T19:48:18.518Z,78.20
2017-07-24T19:50:45.433Z,78.40
2017-07-24T19:53:12.630Z,77.80
2017-07-24T19:55:39.535Z,77.90
2017-07-24T19:58:06.535Z,78.20
2017-07-24T20:00:33.877Z,77.70
2017-07-24T20:03:00.822Z,77.70
2017-07-24T20:05:27.714Z,78.10
2017-07-24T20:07:54.682Z,78.40
2017-07-24T20:10:21.577Z,78.60
2017-07-24T20:12:48.481Z,78.60
2017-07-24T20:15:15.364Z,78.70
2017-07-24T20:17:42.309Z,78.80
2017-07-24T20:20:09.257Z,79.30
2017-07-24T20:22:36.538Z,78.80
2017-07-24T20:25:03.474Z,78.80
2017-07-24T20:27:30.757Z,78.60
2017-07-24T20:29:57.772Z,78.60
2017-07-24T20:32:25.261Z,79.00
2017-07-24T20:34:52.144Z,79.00
2017-07-24T20:37:19.414Z,79.40
2017-07-24T20:39:46.331Z,79.70
2017-07-24T20:42:13.218Z,79.50
2017-07-24T20:44:40.529Z,78.80
2017-07-24T20:47:07.522Z,78.80
2017-07-24T20:49:34.807Z,79.20
2017-07-24T20:52:01.719Z,79.20
2017-07-24T20:54:29.061Z,79.50
2017-07-24T20:56:55.953Z,79.50
2017-07-24T20:59:22.861Z,79.80
2017-07-24T21:01:49.782Z,79.90
2017-07-24T21:04:16.768Z,80.20
2017-07-24T21:06:44.150Z,80.30
2017-07-24T21:09:11.065Z,80.30
2017-07-24T21:11:37.948Z,80.60
2017-07-24T21:14:04.856Z,80.30
2017-07-24T21:16:32.618Z,80.30
2017-07-24T21:19:00.061Z,80.50
2017-07-24T21:21:27.023Z,80.50
2017-07-24T21:23:54.375Z,81.50
2017-07-24T21:26:21.736Z,82.10
2017-07-24T21:28:49.019Z,83.10
2017-07-24T21:31:16.024Z,83.10
2017-07-24T21:33:42.985Z,83.70
2017-07-24T21:36:10.259Z,84.30
2017-07-24T21:38:37.173Z,84.30
2017-07-24T21:41:04.128Z,83.80
2017-07-24T21:43:31.473Z,84.40
2017-07-24T21:45:58.421Z,84.40
2017-07-24T21:48:25.346Z,84.90
2017-07-24T21:50:52.223Z,84.90
2017-07-24T21:53:19.578Z,84.40
2017-07-24T21:55:46.920Z,83.80
2017-07-24T21:58:13.875Z,83.70
2017-07-24T22:00:40.821Z,82.80
2017-07-24T22:03:07.764Z,82.20
2017-07-24T22:05:34.727Z,81.50
2017-07-24T22:08:02.048Z,81.70
2017-07-24T22:10:29.010Z,81.70
2017-07-24T22:12:55.955Z,82.10
2017-07-24T22:15:22.901Z,82.60
2017-07-24T22:17:49.867Z,82.80
2017-07-24T22:20:17.144Z,83.00
2017-07-24T22:22:44.155Z,83.00
2017-07-24T22:25:11.056Z,83.20
2017-07-24T22:27:37.962Z,82.40
2017-07-24T22:30:05.250Z,81.70
2017-07-24T22:32:32.242Z,81.70
2017-07-24T22:34:59.190Z,81.60
2017-07-24T22:37:26.147Z,81.60
2017-07-24T22:39:53.490Z,80.80
2017-07-24T22:42:20.446Z,80.80
2017-07-24T22:44:47.362Z,80.30
2017-07-24T22:47:14.245Z,80.50
2017-07-24T22:49:41.527Z,79.60
2017-07-24T22:52:08.536Z,79.60
2017-07-24T22:54:35.831Z,79.60
2017-07-24T22:57:02.843Z,79.90
2017-07-24T22:59:29.757Z,80.20
2017-07-24T23:01:56.742Z,80.50
2017-07-24T23:04:24.086Z,79.30
2017-07-24T23:06:51.033Z,79.30
2017-07-24T23:09:17.922Z,79.40
2017-07-24T23:11:44.817Z,79.70
2017-07-24T23:14:11.852Z,79.90
2017-07-24T23:16:38.813Z,80.00
2017-07-24T23:19:05.770Z,79.50
2017-07-24T23:21:33.075Z,79.20
2017-07-24T23:23:59.949Z,79.20
2017-07-24T23:26:26.870Z,79.10
2017-07-24T23:28:53.853Z,79.60
2017-07-24T23:31:20.809Z,79.70
2017-07-24T23:33:48.157Z,79.60
2017-07-24T23:36:15.037Z,79.60
2017-07-24T23:38:41.960Z,79.90
2017-07-24T23:41:09.306Z,79.70
2017-07-24T23:43:36.249Z,79.70
2017-07-24T23:46:03.197Z,79.70
2017-07-24T23:48:30.142Z,79.20
2017-07-24T23:50:57.098Z,79.20
2017-07-24T23:53:24.406Z,78.70
2017-07-24T23:55:51.294Z,78.70
2017-07-24T23:58:18.654Z,78.30
